sensor_id;sensor_type;location;lat;lon;timestamp;temperature;humidity
18291;DHT22;9271;48.590;8.866;2023-12-04T00:01:57;-4.90;99.90
18291;DHT22;9271;48.590;8.866;2023-12-04T00:04:23;-4.70;99.90
18291;DHT22;9271;48.590;8.866;2023-12-04T00:06:50;-4.60;99.90
18291;DHT22;9271;48.590;8.866;2023-12-04T00:09:17;-4.50;99.90
18291;DHT22;9271;48.590;8.866;2023-12-04T00:11:44;-4.50;99.90
18291;DHT22;9271;48.590;8.866;2023-12-04T00:14:10;-4.60;99.90
18291;DHT22;9271;48.590;8.866;2023-12-04T00:16:39;-4.50;99.90
18291;DHT22;9271;48.590;8.866;2023-12-04T00:19:05;-4.50;99.90
18291;DHT22;9271;48.590;8.866;2023-12-04T00:21:32;-4.50;99.90
18291;DHT22;9271;48.590;8.866;2023-12-04T00:23:59;-4.60;99.90
18291;DHT22;9271;48.590;8.866;2023-12-04T00:26:25;-4.70;99.90
18291;DHT22;9271;48.590;8.866;2023-12-04T00:28:52;-4.90;99.90
18291;DHT22;9271;48.590;8.866;2023-12-04T00:31:19;-5.10;99.90
18291;DHT22;9271;48.590;8.866;2023-12-04T00:33:48;-5.70;99.90
18291;DHT22;9271;48.590;8.866;2023-12-04T00:36:14;-5.50;99.90
18291;DHT22;9271;48.590;8.866;2023-12-04T00:38:41;-5.60;99.90
18291;DHT22;9271;48.590;8.866;2023-12-04T00:41:10;-5.60;99.90
18291;DHT22;9271;48.590;8.866;2023-12-04T00:43:37;-5.50;99.90
18291;DHT22;9271;48.590;8.866;2023-12-04T00:46:04;-5.30;99.90
18291;DHT22;9271;48.590;8.866;2023-12-04T00:48:30;-5.10;99.90
18291;DHT22;9271;48.590;8.866;2023-12-04T00:50:59;-4.90;99.90
18291;DHT22;9271;48.590;8.866;2023-12-04T00:53:25;-4.80;99.90
18291;DHT22;9271;48.590;8.866;2023-12-04T00:55:52;-5.10;99.90
18291;DHT22;9271;48.590;8.866;2023-12-04T00:58:19;-5.20;99.90
18291;DHT22;9271;48.590;8.866;2023-12-04T01:00:46;-5.00;99.90
18291;DHT22;9271;48.590;8.866;2023-12-04T01:03:14;-4.90;99.90
18291;DHT22;9271;48.590;8.866;2023-12-04T01:05:41;-4.80;99.90
18291;DHT22;9271;48.590;8.866;2023-12-04T01:08:09;-4.70;99.90
18291;DHT22;9271;48.590;8.866;2023-12-04T01:10:36;-4.60;99.90
18291;DHT22;9271;48.590;8.866;2023-12-04T01:13:02;-4.50;99.90
18291;DHT22;9271;48.590;8.866;2023-12-04T01:15:29;-4.60;99.90
18291;DHT22;9271;48.590;8.866;2023-12-04T01:17:56;-4.50;99.90
18291;DHT22;9271;48.590;8.866;2023-12-04T01:20:23;-4.60;99.90
18291;DHT22;9271;48.590;8.866;2023-12-04T01:22:49;-4.50;99.90
18291;DHT22;9271;48.590;8.866;2023-12-04T01:25:17;-4.40;99.90
18291;DHT22;9271;48.590;8.866;2023-12-04T01:27:44;-4.40;99.90
18291;DHT22;9271;48.590;8.866;2023-12-04T01:30:11;-4.40;99.90
18291;DHT22;9271;48.590;8.866;2023-12-04T01:32:39;-4.40;99.90
18291;DHT22;9271;48.590;8.866;2023-12-04T01:35:06;-4.50;99.90
18291;DHT22;9271;48.590;8.866;2023-12-04T01:37:33;-4.50;99.90
18291;DHT22;9271;48.590;8.866;2023-12-04T01:40:00;-4.40;99.90
18291;DHT22;9271;48.590;8.866;2023-12-04T01:42:28;-4.80;99.90
18291;DHT22;9271;48.590;8.866;2023-12-04T01:44:54;-4.90;99.90
18291;DHT22;9271;48.590;8.866;2023-12-04T01:47:21;-5.10;99.90
18291;DHT22;9271;48.590;8.866;2023-12-04T01:49:48;-5.20;99.90
18291;DHT22;9271;48.590;8.866;2023-12-04T01:52:15;-5.00;99.90
18291;DHT22;9271;48.590;8.866;2023-12-04T01:54:42;-4.80;99.90
18291;DHT22;9271;48.590;8.866;2023-12-04T01:57:09;-4.50;99.90
18291;DHT22;9271;48.590;8.866;2023-12-04T01:59:38;-4.30;99.90
18291;DHT22;9271;48.590;8.866;2023-12-04T02:02:05;-4.30;99.90
18291;DHT22;9271;48.590;8.866;2023-12-04T02:04:32;-4.40;99.90
18291;DHT22;9271;48.590;8.866;2023-12-04T02:06:59;-4.40;99.90
18291;DHT22;9271;48.590;8.866;2023-12-04T02:09:26;-4.40;99.90
18291;DHT22;9271;48.590;8.866;2023-12-04T02:11:53;-4.50;99.90
18291;DHT22;9271;48.590;8.866;2023-12-04T02:14:20;-4.30;99.90
18291;DHT22;9271;48.590;8.866;2023-12-04T02:16:48;-4.70;99.90
18291;DHT22;9271;48.590;8.866;2023-12-04T02:19:15;-4.50;99.90
18291;DHT22;9271;48.590;8.866;2023-12-04T02:21:42;-4.50;99.90
18291;DHT22;9271;48.590;8.866;2023-12-04T02:24:10;-4.50;99.90
18291;DHT22;9271;48.590;8.866;2023-12-04T02:26:43;-4.70;99.90
18291;DHT22;9271;48.590;8.866;2023-12-04T02:29:14;-4.60;99.90
18291;DHT22;9271;48.590;8.866;2023-12-04T02:31:42;-4.60;99.90
18291;DHT22;9271;48.590;8.866;2023-12-04T02:34:11;-5.30;99.90
18291;DHT22;9271;48.590;8.866;2023-12-04T02:36:40;-5.80;99.90
18291;DHT22;9271;48.590;8.866;2023-12-04T02:39:09;-5.90;99.90
18291;DHT22;9271;48.590;8.866;2023-12-04T02:41:36;-6.00;99.90
18291;DHT22;9271;48.590;8.866;2023-12-04T02:44:03;-5.40;99.90
18291;DHT22;9271;48.590;8.866;2023-12-04T02:46:30;-5.50;99.90
18291;DHT22;9271;48.590;8.866;2023-12-04T02:48:56;-5.70;99.90
18291;DHT22;9271;48.590;8.866;2023-12-04T02:51:23;-5.60;99.90
18291;DHT22;9271;48.590;8.866;2023-12-04T02:53:51;-5.80;99.90
18291;DHT22;9271;48.590;8.866;2023-12-04T02:56:20;-5.50;99.90
18291;DHT22;9271;48.590;8.866;2023-12-04T02:58:46;-5.10;99.90
18291;DHT22;9271;48.590;8.866;2023-12-04T03:01:13;-5.00;99.90
18291;DHT22;9271;48.590;8.866;2023-12-04T03:03:40;-5.20;99.90
18291;DHT22;9271;48.590;8.866;2023-12-04T03:06:07;-5.20;99.90
18291;DHT22;9271;48.590;8.866;2023-12-04T03:08:33;-5.10;99.90
18291;DHT22;9271;48.590;8.866;2023-12-04T03:11:01;-4.80;99.90
18291;DHT22;9271;48.590;8.866;2023-12-04T03:13:29;-4.70;99.90
18291;DHT22;9271;48.590;8.866;2023-12-04T03:15:56;-4.60;99.90
18291;DHT22;9271;48.590;8.866;2023-12-04T03:18:22;-4.50;99.90
18291;DHT22;9271;48.590;8.866;2023-12-04T03:20:51;-4.30;99.90
18291;DHT22;9271;48.590;8.866;2023-12-04T03:23:17;-4.10;99.90
18291;DHT22;9271;48.590;8.866;2023-12-04T03:25:44;-3.90;99.90
18291;DHT22;9271;48.590;8.866;2023-12-04T03:28:11;-4.00;99.90
18291;DHT22;9271;48.590;8.866;2023-12-04T03:30:40;-4.10;99.90
18291;DHT22;9271;48.590;8.866;2023-12-04T03:33:08;-4.30;99.90
18291;DHT22;9271;48.590;8.866;2023-12-04T03:35:35;-4.90;99.90
18291;DHT22;9271;48.590;8.866;2023-12-04T03:38:02;-5.20;99.90
18291;DHT22;9271;48.590;8.866;2023-12-04T03:40:28;-4.80;99.90
18291;DHT22;9271;48.590;8.866;2023-12-04T03:42:55;-4.50;99.90
18291;DHT22;9271;48.590;8.866;2023-12-04T03:45:21;-4.30;99.90
18291;DHT22;9271;48.590;8.866;2023-12-04T03:47:49;-4.20;99.90
18291;DHT22;9271;48.590;8.866;2023-12-04T03:50:16;-4.10;99.90
18291;DHT22;9271;48.590;8.866;2023-12-04T03:52:43;-4.10;99.90
18291;DHT22;9271;48.590;8.866;2023-12-04T03:55:10;-4.00;99.90
18291;DHT22;9271;48.590;8.866;2023-12-04T03:57:37;-3.90;99.90
18291;DHT22;9271;48.590;8.866;2023-12-04T04:00:04;-3.90;99.90
18291;DHT22;9271;48.590;8.866;2023-12-04T04:02:31;-4.00;99.90
18291;DHT22;9271;48.590;8.866;2023-12-04T04:04:59;-3.90;99.90
18291;DHT22;9271;48.590;8.866;2023-12-04T04:07:26;-3.80;99.90
18291;DHT22;9271;48.590;8.866;2023-12-04T04:09:53;-3.80;99.90
18291;DHT22;9271;48.590;8.866;2023-12-04T04:12:19;-3.70;99.90
18291;DHT22;9271;48.590;8.866;2023-12-04T04:14:46;-3.60;99.90
18291;DHT22;9271;48.590;8.866;2023-12-04T04:17:14;-3.50;99.90
18291;DHT22;9271;48.590;8.866;2023-12-04T04:19:41;-3.60;99.90
18291;DHT22;9271;48.590;8.866;2023-12-04T04:22:09;-3.50;99.90
18291;DHT22;9271;48.590;8.866;2023-12-04T04:24:36;-3.40;99.90
18291;DHT22;9271;48.590;8.866;2023-12-04T04:27:03;-3.40;99.90
18291;DHT22;9271;48.590;8.866;2023-12-04T04:29:29;-3.40;99.90
18291;DHT22;9271;48.590;8.866;2023-12-04T04:31:56;-3.50;99.90
18291;DHT22;9271;48.590;8.866;2023-12-04T04:34:22;-3.40;99.90
18291;DHT22;9271;48.590;8.866;2023-12-04T04:36:49;-3.30;99.90
18291;DHT22;9271;48.590;8.866;2023-12-04T04:39:17;-3.30;99.90
18291;DHT22;9271;48.590;8.866;2023-12-04T04:41:44;-3.20;99.90
18291;DHT22;9271;48.590;8.866;2023-12-04T04:44:11;-3.10;99.90
18291;DHT22;9271;48.590;8.866;2023-12-04T04:46:37;-3.10;99.90
18291;DHT22;9271;48.590;8.866;2023-12-04T04:49:04;-3.10;99.90
18291;DHT22;9271;48.590;8.866;2023-12-04T04:51:32;-3.00;99.90
18291;DHT22;9271;48.590;8.866;2023-12-04T04:53:59;-3.00;99.90
18291;DHT22;9271;48.590;8.866;2023-12-04T04:56:27;-2.90;99.90
18291;DHT22;9271;48.590;8.866;2023-12-04T04:58:54;-2.80;99.90
18291;DHT22;9271;48.590;8.866;2023-12-04T05:01:20;-3.50;99.90
18291;DHT22;9271;48.590;8.866;2023-12-04T05:03:47;-3.70;99.90
18291;DHT22;9271;48.590;8.866;2023-12-04T05:06:14;-3.90;99.90
18291;DHT22;9271;48.590;8.866;2023-12-04T05:08:40;-4.30;99.90
18291;DHT22;9271;48.590;8.866;2023-12-04T05:11:07;-4.60;99.90
18291;DHT22;9271;48.590;8.866;2023-12-04T05:13:35;-5.00;99.90
18291;DHT22;9271;48.590;8.866;2023-12-04T05:16:02;-5.00;99.90
18291;DHT22;9271;48.590;8.866;2023-12-04T05:18:29;-5.00;99.90
18291;DHT22;9271;48.590;8.866;2023-12-04T05:20:55;-4.90;99.90
18291;DHT22;9271;48.590;8.866;2023-12-04T05:23:22;-4.30;99.90
18291;DHT22;9271;48.590;8.866;2023-12-04T05:25:48;-3.80;99.90
18291;DHT22;9271;48.590;8.866;2023-12-04T05:28:15;-3.70;99.90
18291;DHT22;9271;48.590;8.866;2023-12-04T05:30:43;-3.50;99.90
18291;DHT22;9271;48.590;8.866;2023-12-04T05:33:10;-3.50;99.90
18291;DHT22;9271;48.590;8.866;2023-12-04T05:35:36;-3.60;99.90
18291;DHT22;9271;48.590;8.866;2023-12-04T05:38:03;-3.50;99.90
18291;DHT22;9271;48.590;8.866;2023-12-04T05:40:30;-3.50;99.90
18291;DHT22;9271;48.590;8.866;2023-12-04T05:42:56;-3.50;99.90
18291;DHT22;9271;48.590;8.866;2023-12-04T05:45:23;-3.60;99.90
18291;DHT22;9271;48.590;8.866;2023-12-04T05:47:51;-3.80;99.90
18291;DHT22;9271;48.590;8.866;2023-12-04T05:50:18;-3.80;99.90
18291;DHT22;9271;48.590;8.866;2023-12-04T05:52:45;-3.80;99.90
18291;DHT22;9271;48.590;8.866;2023-12-04T05:55:12;-3.80;99.90
18291;DHT22;9271;48.590;8.866;2023-12-04T05:57:38;-3.90;99.90
18291;DHT22;9271;48.590;8.866;2023-12-04T06:00:06;-3.90;99.90
18291;DHT22;9271;48.590;8.866;2023-12-04T06:02:37;-3.80;99.90
18291;DHT22;9271;48.590;8.866;2023-12-04T06:05:06;-3.80;99.90
18291;DHT22;9271;48.590;8.866;2023-12-04T06:07:33;-3.80;99.90
18291;DHT22;9271;48.590;8.866;2023-12-04T06:10:00;-3.80;99.90
18291;DHT22;9271;48.590;8.866;2023-12-04T06:12:27;-3.70;99.90
18291;DHT22;9271;48.590;8.866;2023-12-04T06:14:53;-3.60;99.90
18291;DHT22;9271;48.590;8.866;2023-12-04T06:17:20;-3.60;99.90
18291;DHT22;9271;48.590;8.866;2023-12-04T06:19:47;-3.50;99.90
18291;DHT22;9271;48.590;8.866;2023-12-04T06:22:15;-3.20;99.90
18291;DHT22;9271;48.590;8.866;2023-12-04T06:24:45;-3.00;99.90
18291;DHT22;9271;48.590;8.866;2023-12-04T06:27:15;-3.00;99.90
18291;DHT22;9271;48.590;8.866;2023-12-04T06:29:43;-2.90;99.90
18291;DHT22;9271;48.590;8.866;2023-12-04T06:32:12;-2.80;99.90
18291;DHT22;9271;48.590;8.866;2023-12-04T06:34:39;-2.80;99.90
18291;DHT22;9271;48.590;8.866;2023-12-04T06:37:09;-2.80;99.90
18291;DHT22;9271;48.590;8.866;2023-12-04T06:39:38;-2.70;99.90
18291;DHT22;9271;48.590;8.866;2023-12-04T06:42:06;-2.70;99.90
18291;DHT22;9271;48.590;8.866;2023-12-04T06:44:34;-2.70;99.90
18291;DHT22;9271;48.590;8.866;2023-12-04T06:47:01;-2.60;99.90
18291;DHT22;9271;48.590;8.866;2023-12-04T06:49:30;-2.70;99.90
18291;DHT22;9271;48.590;8.866;2023-12-04T06:51:57;-2.60;99.90
18291;DHT22;9271;48.590;8.866;2023-12-04T06:54:23;-2.60;99.90
18291;DHT22;9271;48.590;8.866;2023-12-04T06:56:51;-2.70;99.90
18291;DHT22;9271;48.590;8.866;2023-12-04T06:59:18;-2.90;99.90
18291;DHT22;9271;48.590;8.866;2023-12-04T07:01:45;-3.30;99.90
18291;DHT22;9271;48.590;8.866;2023-12-04T07:04:12;-3.80;99.90
18291;DHT22;9271;48.590;8.866;2023-12-04T07:06:39;-4.10;99.90
18291;DHT22;9271;48.590;8.866;2023-12-04T07:09:06;-3.80;99.90
18291;DHT22;9271;48.590;8.866;2023-12-04T07:11:34;-3.30;99.90
18291;DHT22;9271;48.590;8.866;2023-12-04T07:14:02;-3.00;99.90
18291;DHT22;9271;48.590;8.866;2023-12-04T07:16:28;-3.00;99.90
18291;DHT22;9271;48.590;8.866;2023-12-04T07:18:55;-3.50;99.90
18291;DHT22;9271;48.590;8.866;2023-12-04T07:21:22;-3.80;99.90
18291;DHT22;9271;48.590;8.866;2023-12-04T07:23:49;-3.50;99.90
18291;DHT22;9271;48.590;8.866;2023-12-04T07:26:15;-3.60;99.90
18291;DHT22;9271;48.590;8.866;2023-12-04T07:28:42;-3.10;99.90
18291;DHT22;9271;48.590;8.866;2023-12-04T07:31:10;-2.70;99.90
18291;DHT22;9271;48.590;8.866;2023-12-04T07:33:37;-2.60;99.90
18291;DHT22;9271;48.590;8.866;2023-12-04T07:36:04;-2.60;99.90
18291;DHT22;9271;48.590;8.866;2023-12-04T07:38:31;-3.30;99.90
18291;DHT22;9271;48.590;8.866;2023-12-04T07:40:57;-3.10;99.90
18291;DHT22;9271;48.590;8.866;2023-12-04T07:43:24;-2.60;99.90
18291;DHT22;9271;48.590;8.866;2023-12-04T07:45:50;-2.30;99.90
18291;DHT22;9271;48.590;8.866;2023-12-04T07:48:18;-2.60;99.90
18291;DHT22;9271;48.590;8.866;2023-12-04T07:50:45;-2.90;99.90
18291;DHT22;9271;48.590;8.866;2023-12-04T07:53:12;-2.40;99.90
18291;DHT22;9271;48.590;8.866;2023-12-04T07:55:39;-2.30;99.90
18291;DHT22;9271;48.590;8.866;2023-12-04T07:58:06;-2.20;99.90
18291;DHT22;9271;48.590;8.866;2023-12-04T08:00:32;-2.30;99.90
18291;DHT22;9271;48.590;8.866;2023-12-04T08:02:59;-2.70;99.90
18291;DHT22;9271;48.590;8.866;2023-12-04T08:05:27;-2.40;99.90
18291;DHT22;9271;48.590;8.866;2023-12-04T08:07:55;-2.00;99.90
18291;DHT22;9271;48.590;8.866;2023-12-04T08:10:21;-1.90;99.90
18291;DHT22;9271;48.590;8.866;2023-12-04T08:12:48;-1.70;99.90
18291;DHT22;9271;48.590;8.866;2023-12-04T08:15:15;-1.70;99.90
18291;DHT22;9271;48.590;8.866;2023-12-04T08:17:42;-1.70;99.90
18291;DHT22;9271;48.590;8.866;2023-12-04T08:20:09;-1.80;99.90
18291;DHT22;9271;48.590;8.866;2023-12-04T08:22:40;-1.70;99.90
18291;DHT22;9271;48.590;8.866;2023-12-04T08:25:07;-1.80;99.90
18291;DHT22;9271;48.590;8.866;2023-12-04T08:27:34;-1.80;99.90
18291;DHT22;9271;48.590;8.866;2023-12-04T08:30:00;-1.70;99.90
18291;DHT22;9271;48.590;8.866;2023-12-04T08:32:28;-1.60;99.90
18291;DHT22;9271;48.590;8.866;2023-12-04T08:34:55;-1.50;99.90
18291;DHT22;9271;48.590;8.866;2023-12-04T08:37:22;-1.60;99.90
18291;DHT22;9271;48.590;8.866;2023-12-04T08:39:50;-1.60;99.90
18291;DHT22;9271;48.590;8.866;2023-12-04T08:42:17;-1.50;99.90
18291;DHT22;9271;48.590;8.866;2023-12-04T08:44:43;-1.30;99.90
18291;DHT22;9271;48.590;8.866;2023-12-04T08:47:11;-1.30;99.90
18291;DHT22;9271;48.590;8.866;2023-12-04T08:49:37;-1.20;99.90
18291;DHT22;9271;48.590;8.866;2023-12-04T08:52:06;-1.10;99.90
18291;DHT22;9271;48.590;8.866;2023-12-04T08:54:33;-1.00;99.90
18291;DHT22;9271;48.590;8.866;2023-12-04T08:57:01;-1.20;99.90
18291;DHT22;9271;48.590;8.866;2023-12-04T08:59:28;-1.10;99.90
18291;DHT22;9271;48.590;8.866;2023-12-04T09:01:54;-1.10;99.90
18291;DHT22;9271;48.590;8.866;2023-12-04T09:04:21;-0.90;99.90
18291;DHT22;9271;48.590;8.866;2023-12-04T09:06:48;-1.00;99.90
18291;DHT22;9271;48.590;8.866;2023-12-04T09:09:14;-0.90;99.90
18291;DHT22;9271;48.590;8.866;2023-12-04T09:11:41;-0.80;99.90
18291;DHT22;9271;48.590;8.866;2023-12-04T09:14:10;-0.40;99.90
18291;DHT22;9271;48.590;8.866;2023-12-04T09:16:36;-0.50;99.90
18291;DHT22;9271;48.590;8.866;2023-12-04T09:19:03;-0.30;99.90
18291;DHT22;9271;48.590;8.866;2023-12-04T09:21:30;-0.40;99.90
18291;DHT22;9271;48.590;8.866;2023-12-04T09:23:56;-0.40;99.90
18291;DHT22;9271;48.590;8.866;2023-12-04T09:26:23;-0.20;99.90
18291;DHT22;9271;48.590;8.866;2023-12-04T09:28:50;0.20;99.90
18291;DHT22;9271;48.590;8.866;2023-12-04T09:31:18;0.40;99.90
18291;DHT22;9271;48.590;8.866;2023-12-04T09:33:44;-0.40;99.90
18291;DHT22;9271;48.590;8.866;2023-12-04T09:36:12;-0.40;99.90
18291;DHT22;9271;48.590;8.866;2023-12-04T09:38:39;-0.20;99.90
18291;DHT22;9271;48.590;8.866;2023-12-04T09:41:06;-0.60;99.90
18291;DHT22;9271;48.590;8.866;2023-12-04T09:43:35;-0.20;99.90
18291;DHT22;9271;48.590;8.866;2023-12-04T09:46:03;0.30;99.90
18291;DHT22;9271;48.590;8.866;2023-12-04T09:48:32;0.50;99.90
18291;DHT22;9271;48.590;8.866;2023-12-04T09:51:00;0.90;99.90
18291;DHT22;9271;48.590;8.866;2023-12-04T09:53:29;1.00;99.90
18291;DHT22;9271;48.590;8.866;2023-12-04T09:55:58;1.20;99.90
18291;DHT22;9271;48.590;8.866;2023-12-04T09:58:28;1.10;99.90
18291;DHT22;9271;48.590;8.866;2023-12-04T10:00:55;1.20;99.90
18291;DHT22;9271;48.590;8.866;2023-12-04T10:03:24;0.30;99.90
18291;DHT22;9271;48.590;8.866;2023-12-04T10:05:53;-0.10;99.90
18291;DHT22;9271;48.590;8.866;2023-12-04T10:08:20;0.30;99.90
18291;DHT22;9271;48.590;8.866;2023-12-04T10:10:47;0.80;99.90
18291;DHT22;9271;48.590;8.866;2023-12-04T10:13:14;0.90;99.90
18291;DHT22;9271;48.590;8.866;2023-12-04T10:15:46;1.20;99.90
18291;DHT22;9271;48.590;8.866;2023-12-04T10:18:24;1.80;99.90
18291;DHT22;9271;48.590;8.866;2023-12-04T10:20:53;2.00;99.90
18291;DHT22;9271;48.590;8.866;2023-12-04T10:23:21;2.60;99.90
18291;DHT22;9271;48.590;8.866;2023-12-04T10:25:48;2.70;99.60
18291;DHT22;9271;48.590;8.866;2023-12-04T10:28:16;2.50;99.20
18291;DHT22;9271;48.590;8.866;2023-12-04T10:30:43;2.40;99.30
18291;DHT22;9271;48.590;8.866;2023-12-04T10:33:10;2.30;99.80
18291;DHT22;9271;48.590;8.866;2023-12-04T10:35:37;2.20;99.90
18291;DHT22;9271;48.590;8.866;2023-12-04T10:38:06;2.40;99.90
18291;DHT22;9271;48.590;8.866;2023-12-04T10:40:34;2.80;99.90
18291;DHT22;9271;48.590;8.866;2023-12-04T10:43:14;3.00;99.10
18291;DHT22;9271;48.590;8.866;2023-12-04T10:45:42;3.70;99.30
18291;DHT22;9271;48.590;8.866;2023-12-04T10:48:11;4.40;98.30
18291;DHT22;9271;48.590;8.866;2023-12-04T10:50:39;4.80;97.20
18291;DHT22;9271;48.590;8.866;2023-12-04T10:53:08;4.80;96.30
18291;DHT22;9271;48.590;8.866;2023-12-04T10:55:36;4.40;96.30
18291;DHT22;9271;48.590;8.866;2023-12-04T10:58:05;2.90;97.80
18291;DHT22;9271;48.590;8.866;2023-12-04T11:00:34;2.20;99.70
18291;DHT22;9271;48.590;8.866;2023-12-04T11:03:04;1.40;99.90
18291;DHT22;9271;48.590;8.866;2023-12-04T11:05:37;1.50;99.90
18291;DHT22;9271;48.590;8.866;2023-12-04T11:08:05;2.00;99.90
18291;DHT22;9271;48.590;8.866;2023-12-04T11:10:38;2.40;99.90
18291;DHT22;9271;48.590;8.866;2023-12-04T11:13:10;2.50;99.90
18291;DHT22;9271;48.590;8.866;2023-12-04T11:15:40;2.70;99.90
18291;DHT22;9271;48.590;8.866;2023-12-04T11:18:09;2.90;99.90
18291;DHT22;9271;48.590;8.866;2023-12-04T11:20:44;2.90;99.80
18291;DHT22;9271;48.590;8.866;2023-12-04T11:23:13;3.00;99.40
18291;DHT22;9271;48.590;8.866;2023-12-04T11:25:43;3.60;99.00
18291;DHT22;9271;48.590;8.866;2023-12-04T11:28:11;3.70;98.30
18291;DHT22;9271;48.590;8.866;2023-12-04T11:30:38;3.70;98.30
18291;DHT22;9271;48.590;8.866;2023-12-04T11:33:05;3.70;98.60
18291;DHT22;9271;48.590;8.866;2023-12-04T11:35:33;3.70;97.60
18291;DHT22;9271;48.590;8.866;2023-12-04T11:38:00;2.90;99.50
18291;DHT22;9271;48.590;8.866;2023-12-04T11:40:27;3.00;99.40
18291;DHT22;9271;48.590;8.866;2023-12-04T11:42:55;2.90;99.90
18291;DHT22;9271;48.590;8.866;2023-12-04T11:45:22;3.20;99.50
18291;DHT22;9271;48.590;8.866;2023-12-04T11:47:49;2.90;99.50
18291;DHT22;9271;48.590;8.866;2023-12-04T11:50:18;2.70;99.90
18291;DHT22;9271;48.590;8.866;2023-12-04T11:52:45;2.40;99.90
18291;DHT22;9271;48.590;8.866;2023-12-04T11:55:12;1.20;99.90
18291;DHT22;9271;48.590;8.866;2023-12-04T11:57:41;1.10;99.90
18291;DHT22;9271;48.590;8.866;2023-12-04T12:00:12;1.50;99.90
18291;DHT22;9271;48.590;8.866;2023-12-04T12:02:44;2.40;99.90
18291;DHT22;9271;48.590;8.866;2023-12-04T12:05:12;3.20;99.90
18291;DHT22;9271;48.590;8.866;2023-12-04T12:07:39;4.10;99.50
18291;DHT22;9271;48.590;8.866;2023-12-04T12:10:06;4.20;98.60
18291;DHT22;9271;48.590;8.866;2023-12-04T12:12:33;4.30;98.40
18291;DHT22;9271;48.590;8.866;2023-12-04T12:15:01;4.30;98.30
18291;DHT22;9271;48.590;8.866;2023-12-04T12:17:30;4.00;98.20
18291;DHT22;9271;48.590;8.866;2023-12-04T12:19:57;3.70;98.30
18291;DHT22;9271;48.590;8.866;2023-12-04T12:22:24;3.20;99.00
18291;DHT22;9271;48.590;8.866;2023-12-04T12:24:51;3.00;99.30
18291;DHT22;9271;48.590;8.866;2023-12-04T12:27:17;3.00;99.60
18291;DHT22;9271;48.590;8.866;2023-12-04T12:29:44;3.20;99.50
18291;DHT22;9271;48.590;8.866;2023-12-04T12:32:11;3.30;99.00
18291;DHT22;9271;48.590;8.866;2023-12-04T12:34:39;3.50;99.20
18291;DHT22;9271;48.590;8.866;2023-12-04T12:37:06;3.60;99.40
18291;DHT22;9271;48.590;8.866;2023-12-04T12:39:33;3.70;98.90
18291;DHT22;9271;48.590;8.866;2023-12-04T12:42:00;3.80;98.90
18291;DHT22;9271;48.590;8.866;2023-12-04T12:44:37;4.00;99.00
18291;DHT22;9271;48.590;8.866;2023-12-04T12:47:05;4.00;99.20
18291;DHT22;9271;48.590;8.866;2023-12-04T12:49:31;4.10;99.20
18291;DHT22;9271;48.590;8.866;2023-12-04T12:52:00;4.00;99.10
18291;DHT22;9271;48.590;8.866;2023-12-04T12:54:26;3.80;99.10
18291;DHT22;9271;48.590;8.866;2023-12-04T12:56:58;3.60;99.50
18291;DHT22;9271;48.590;8.866;2023-12-04T12:59:24;3.20;99.90
18291;DHT22;9271;48.590;8.866;2023-12-04T13:01:52;3.40;99.90
18291;DHT22;9271;48.590;8.866;2023-12-04T13:04:19;3.30;99.90
18291;DHT22;9271;48.590;8.866;2023-12-04T13:06:45;3.30;99.90
18291;DHT22;9271;48.590;8.866;2023-12-04T13:09:14;3.00;99.90
18291;DHT22;9271;48.590;8.866;2023-12-04T13:11:43;2.70;99.90
18291;DHT22;9271;48.590;8.866;2023-12-04T13:14:10;2.80;99.90
18291;DHT22;9271;48.590;8.866;2023-12-04T13:16:36;2.70;99.90
18291;DHT22;9271;48.590;8.866;2023-12-04T13:19:03;2.80;99.90
18291;DHT22;9271;48.590;8.866;2023-12-04T13:21:30;3.00;99.90
18291;DHT22;9271;48.590;8.866;2023-12-04T13:23:57;3.20;99.90
18291;DHT22;9271;48.590;8.866;2023-12-04T13:26:25;3.50;99.90
18291;DHT22;9271;48.590;8.866;2023-12-04T13:28:52;3.60;99.90
18291;DHT22;9271;48.590;8.866;2023-12-04T13:31:19;3.80;99.90
18291;DHT22;9271;48.590;8.866;2023-12-04T13:33:46;3.90;99.90
18291;DHT22;9271;48.590;8.866;2023-12-04T13:36:12;4.10;99.90
18291;DHT22;9271;48.590;8.866;2023-12-04T13:38:39;4.20;99.70
18291;DHT22;9271;48.590;8.866;2023-12-04T13:41:06;3.70;99.90
18291;DHT22;9271;48.590;8.866;2023-12-04T13:44:06;3.40;99.90
18291;DHT22;9271;48.590;8.866;2023-12-04T13:46:32;3.70;99.90
18291;DHT22;9271;48.590;8.866;2023-12-04T13:48:59;3.80;99.90
18291;DHT22;9271;48.590;8.866;2023-12-04T13:51:26;3.60;99.90
18291;DHT22;9271;48.590;8.866;2023-12-04T13:53:52;3.40;99.90
18291;DHT22;9271;48.590;8.866;2023-12-04T13:56:24;3.60;99.90
18291;DHT22;9271;48.590;8.866;2023-12-04T13:59:09;3.60;99.90
18291;DHT22;9271;48.590;8.866;2023-12-04T14:01:43;3.50;99.90
18291;DHT22;9271;48.590;8.866;2023-12-04T14:04:10;3.70;99.90
18291;DHT22;9271;48.590;8.866;2023-12-04T14:06:37;4.20;99.90
18291;DHT22;9271;48.590;8.866;2023-12-04T14:09:03;3.80;99.90
18291;DHT22;9271;48.590;8.866;2023-12-04T14:11:35;3.70;99.90
18291;DHT22;9271;48.590;8.866;2023-12-04T14:14:02;4.00;99.90
18291;DHT22;9271;48.590;8.866;2023-12-04T14:16:30;4.00;99.90
18291;DHT22;9271;48.590;8.866;2023-12-04T14:18:57;4.20;99.90
18291;DHT22;9271;48.590;8.866;2023-12-04T14:21:23;3.90;99.90
18291;DHT22;9271;48.590;8.866;2023-12-04T14:23:50;3.50;99.90
18291;DHT22;9271;48.590;8.866;2023-12-04T14:26:17;3.10;99.90
18291;DHT22;9271;48.590;8.866;2023-12-04T14:28:43;2.90;99.90
18291;DHT22;9271;48.590;8.866;2023-12-04T14:31:10;2.90;99.90
18291;DHT22;9271;48.590;8.866;2023-12-04T14:33:38;2.80;99.90
18291;DHT22;9271;48.590;8.866;2023-12-04T14:36:05;2.90;99.90
18291;DHT22;9271;48.590;8.866;2023-12-04T14:38:32;3.00;99.90
18291;DHT22;9271;48.590;8.866;2023-12-04T14:41:00;2.90;99.90
18291;DHT22;9271;48.590;8.866;2023-12-04T14:43:27;3.20;99.90
18291;DHT22;9271;48.590;8.866;2023-12-04T14:45:54;3.30;99.90
18291;DHT22;9271;48.590;8.866;2023-12-04T14:48:20;3.30;99.90
18291;DHT22;9271;48.590;8.866;2023-12-04T14:50:48;3.30;99.90
18291;DHT22;9271;48.590;8.866;2023-12-04T14:53:15;3.30;99.90
18291;DHT22;9271;48.590;8.866;2023-12-04T14:55:53;3.40;99.90
18291;DHT22;9271;48.590;8.866;2023-12-04T14:58:37;3.10;99.90
18291;DHT22;9271;48.590;8.866;2023-12-04T15:01:21;2.90;99.90
18291;DHT22;9271;48.590;8.866;2023-12-04T15:04:05;2.90;99.90
18291;DHT22;9271;48.590;8.866;2023-12-04T15:07:04;3.00;99.90
18291;DHT22;9271;48.590;8.866;2023-12-04T15:09:56;2.80;99.90
18291;DHT22;9271;48.590;8.866;2023-12-04T15:12:40;2.80;99.90
18291;DHT22;9271;48.590;8.866;2023-12-04T15:15:32;2.60;99.90
18291;DHT22;9271;48.590;8.866;2023-12-04T15:18:11;2.60;99.90
18291;DHT22;9271;48.590;8.866;2023-12-04T15:21:00;2.20;99.90
18291;DHT22;9271;48.590;8.866;2023-12-04T15:23:27;2.50;99.90
18291;DHT22;9271;48.590;8.866;2023-12-04T15:25:53;2.70;99.90
18291;DHT22;9271;48.590;8.866;2023-12-04T15:28:19;2.80;99.90
18291;DHT22;9271;48.590;8.866;2023-12-04T15:30:46;2.70;99.90
18291;DHT22;9271;48.590;8.866;2023-12-04T15:33:11;2.90;99.90
18291;DHT22;9271;48.590;8.866;2023-12-04T15:35:39;2.80;99.90
18291;DHT22;9271;48.590;8.866;2023-12-04T15:38:04;2.50;99.90
18291;DHT22;9271;48.590;8.866;2023-12-04T15:40:34;2.60;99.90
18291;DHT22;9271;48.590;8.866;2023-12-04T15:43:00;2.80;99.90
18291;DHT22;9271;48.590;8.866;2023-12-04T15:45:27;2.90;99.90
18291;DHT22;9271;48.590;8.866;2023-12-04T15:47:53;2.70;99.90
18291;DHT22;9271;48.590;8.866;2023-12-04T15:50:19;2.60;99.90
18291;DHT22;9271;48.590;8.866;2023-12-04T15:52:47;2.80;99.90
18291;DHT22;9271;48.590;8.866;2023-12-04T15:55:14;2.80;99.90
18291;DHT22;9271;48.590;8.866;2023-12-04T15:57:41;2.90;99.90